createdAt,value
2023-04-22T00:00:26.088Z,22.67
2023-04-22T00:01:26.155Z,22.65
2023-04-22T00:02:26.248Z,22.65
2023-04-22T00:03:26.455Z,22.68
2023-04-22T00:04:26.555Z,22.60
2023-04-22T00:05:26.536Z,22.61
2023-04-22T00:06:26.417Z,22.64
2023-04-22T00:07:26.495Z,22.64
2023-04-22T00:08:26.571Z,22.60
2023-04-22T00:09:26.600Z,22.64
2023-04-22T00:10:26.643Z,22.60
2023-04-22T00:11:26.720Z,22.68
2023-04-22T00:12:26.775Z,22.62
2023-04-22T00:13:26.856Z,22.71
2023-04-22T00:14:26.900Z,22.62
2023-04-22T00:15:26.935Z,22.70
2023-04-22T00:16:27.033Z,22.60
2023-04-22T00:17:27.115Z,22.62
2023-04-22T00:18:27.111Z,22.64
2023-04-22T00:19:27.160Z,22.62
2023-04-22T00:20:27.211Z,22.67
2023-04-22T00:21:27.252Z,22.64
2023-04-22T00:22:27.292Z,22.64
2023-04-22T00:23:27.330Z,22.67
2023-04-22T00:24:27.382Z,22.65
2023-04-22T00:25:27.437Z,22.62
2023-04-22T00:26:27.483Z,22.64
2023-04-22T00:27:27.521Z,22.59
2023-04-22T00:28:27.552Z,22.64
2023-04-22T00:29:27.596Z,22.60
2023-04-22T00:30:27.679Z,22.65
2023-04-22T00:31:27.769Z,22.65
2023-04-22T00:32:27.841Z,22.62
2023-04-22T00:33:27.814Z,22.59
2023-04-22T00:34:27.890Z,22.65
2023-04-22T00:35:27.959Z,22.65
2023-04-22T00:36:27.998Z,22.64
2023-04-22T00:37:28.094Z,22.65
2023-04-22T00:38:28.113Z,22.68
2023-04-22T00:39:28.177Z,22.60
2023-04-22T00:40:28.254Z,22.64
2023-04-22T00:41:28.292Z,22.62
2023-04-22T00:42:28.337Z,22.64
2023-04-22T00:43:28.399Z,22.64
2023-04-22T00:44:28.455Z,22.63
2023-04-22T00:45:28.506Z,22.64
2023-04-22T00:46:28.603Z,22.60
2023-04-22T00:47:28.664Z,22.64
2023-04-22T00:48:29.028Z,22.62
2023-04-22T00:49:28.725Z,22.62
2023-04-22T00:50:28.791Z,22.60
2023-04-22T00:51:28.808Z,22.64
2023-04-22T00:52:28.853Z,22.65
2023-04-22T00:53:28.883Z,22.70
2023-04-22T00:54:28.958Z,22.65
2023-04-22T00:55:29.000Z,22.64
2023-04-22T00:56:29.043Z,22.64
2023-04-22T00:57:29.103Z,22.64
2023-04-22T00:58:29.175Z,22.65
2023-04-22T00:59:29.222Z,22.63
2023-04-22T01:00:29.367Z,22.62
2023-04-22T01:01:29.405Z,22.67
2023-04-22T01:02:29.457Z,22.62
2023-04-22T01:03:29.554Z,22.65
2023-04-22T01:04:29.480Z,22.70
2023-04-22T01:05:29.486Z,22.62
2023-04-22T01:06:29.509Z,22.65
2023-04-22T01:07:29.524Z,22.66
2023-04-22T01:08:29.580Z,22.63
2023-04-22T01:09:29.613Z,22.66
2023-04-22T01:10:29.652Z,22.65
2023-04-22T01:11:29.638Z,22.68
2023-04-22T01:12:29.680Z,22.65
2023-04-22T01:13:29.674Z,22.62
2023-04-22T01:14:29.712Z,22.67
2023-04-22T01:15:29.753Z,22.68
2023-04-22T01:16:29.785Z,22.68
2023-04-22T01:17:29.764Z,22.62
2023-04-22T01:18:29.783Z,22.68
2023-04-22T01:19:29.800Z,22.68
2023-04-22T01:20:29.809Z,22.68
2023-04-22T01:21:29.828Z,22.67
2023-04-22T01:22:29.878Z,22.71
2023-04-22T01:23:29.899Z,22.66
2023-04-22T01:24:29.921Z,22.67
2023-04-22T01:25:29.951Z,22.70
2023-04-22T01:26:30.019Z,22.70
2023-04-22T01:27:30.055Z,22.65
2023-04-22T01:28:30.080Z,22.67
2023-04-22T01:29:30.120Z,22.65
2023-04-22T01:30:30.170Z,22.70
2023-04-22T01:31:30.217Z,22.70
2023-04-22T01:32:30.327Z,22.68
2023-04-22T01:33:30.211Z,22.68
2023-04-22T01:34:30.245Z,22.70
2023-04-22T01:35:30.265Z,22.72
2023-04-22T01:36:30.280Z,22.70
2023-04-22T01:37:30.275Z,22.77
2023-04-22T01:38:30.337Z,22.70
2023-04-22T01:39:30.372Z,22.71
2023-04-22T01:40:30.498Z,22.70
2023-04-22T01:41:30.426Z,22.70
2023-04-22T01:42:30.461Z,22.72
2023-04-22T01:43:30.511Z,22.74
2023-04-22T01:44:30.490Z,22.66
2023-04-22T01:45:30.502Z,22.70
2023-04-22T01:46:30.689Z,22.72
2023-04-22T01:47:30.558Z,22.70
2023-04-22T01:48:30.567Z,22.71
2023-04-22T01:49:30.594Z,22.72
2023-04-22T01:50:30.640Z,22.71
2023-04-22T01:51:30.664Z,22.72
2023-04-22T01:52:30.676Z,22.74
2023-04-22T01:53:30.716Z,22.72
2023-04-22T01:54:30.710Z,22.71
2023-04-22T01:55:30.737Z,22.68
2023-04-22T01:56:30.766Z,22.77
2023-04-22T01:57:30.780Z,22.68
2023-04-22T01:58:30.805Z,22.70
2023-04-22T01:59:30.824Z,22.74
2023-04-22T02:00:30.810Z,22.74
2023-04-22T02:01:30.881Z,22.72
2023-04-22T02:02:30.888Z,22.72
2023-04-22T02:03:30.933Z,22.76
2023-04-22T02:04:30.873Z,22.71
2023-04-22T02:05:30.867Z,22.74
2023-04-22T02:06:30.870Z,22.76
2023-04-22T02:07:30.878Z,22.72
2023-04-22T02:08:30.886Z,22.77
2023-04-22T02:09:30.901Z,22.74
2023-04-22T02:10:30.908Z,22.74
2023-04-22T02:11:30.928Z,22.76
2023-04-22T02:12:30.910Z,22.77
2023-04-22T02:13:30.898Z,22.77
2023-04-22T02:14:30.919Z,22.77
2023-04-22T02:15:31.026Z,22.72
2023-04-22T02:16:31.200Z,22.74
2023-04-22T02:17:30.970Z,22.72
2023-04-22T02:18:30.944Z,22.74
2023-04-22T02:19:30.994Z,22.69
2023-04-22T02:20:30.967Z,22.74
2023-04-22T02:21:30.974Z,22.74
2023-04-22T02:22:30.958Z,22.71
2023-04-22T02:23:30.966Z,22.72
2023-04-22T02:24:30.957Z,22.70
2023-04-22T02:25:31.153Z,22.71
2023-04-22T02:26:30.960Z,22.76
2023-04-22T02:27:30.978Z,22.72
2023-04-22T02:28:31.002Z,22.71
2023-04-22T02:29:31.010Z,22.71
2023-04-22T02:30:31.050Z,22.71
2023-04-22T02:31:31.057Z,22.75
2023-04-22T02:32:31.101Z,22.72
2023-04-22T02:33:31.067Z,22.70
2023-04-22T02:34:31.071Z,22.72
2023-04-22T02:35:31.085Z,22.74
2023-04-22T02:36:31.119Z,22.79
2023-04-22T02:37:31.070Z,22.74
2023-04-22T02:38:31.077Z,22.79
2023-04-22T02:39:31.076Z,22.74
2023-04-22T02:40:31.110Z,22.72
2023-04-22T02:41:31.098Z,22.74
2023-04-22T02:42:31.105Z,22.72
2023-04-22T02:43:31.141Z,22.72
2023-04-22T02:44:31.159Z,22.72
2023-04-22T02:45:31.164Z,22.74
2023-04-22T02:46:31.175Z,22.75
2023-04-22T02:47:31.177Z,22.72
2023-04-22T02:48:31.149Z,22.71
2023-04-22T02:49:31.149Z,22.79
2023-04-22T02:50:31.166Z,22.71
2023-04-22T02:51:31.188Z,22.75
2023-04-22T02:52:31.193Z,22.78
2023-04-22T02:53:31.191Z,22.74
2023-04-22T02:54:31.197Z,22.74
2023-04-22T02:55:31.231Z,22.74
2023-04-22T02:56:31.208Z,22.72
2023-04-22T02:57:31.197Z,22.74
2023-04-22T02:58:31.202Z,22.76
2023-04-22T02:59:31.227Z,22.72
2023-04-22T03:00:31.234Z,22.75
2023-04-22T03:01:31.366Z,22.75
2023-04-22T03:02:31.373Z,22.72
2023-04-22T03:03:31.359Z,22.72
2023-04-22T03:04:31.289Z,22.74
2023-04-22T03:05:31.265Z,22.74
2023-04-22T03:06:31.295Z,22.72
2023-04-22T03:07:31.281Z,22.75
2023-04-22T03:08:31.321Z,22.72
2023-04-22T03:09:31.290Z,22.79
2023-04-22T03:10:31.276Z,22.83
2023-04-22T03:11:31.283Z,22.74
2023-04-22T03:12:31.279Z,22.68
2023-04-22T03:13:31.291Z,22.72
2023-04-22T03:14:31.329Z,22.72
2023-04-22T03:15:31.349Z,22.71
2023-04-22T03:16:31.394Z,22.75
2023-04-22T03:17:31.421Z,22.69
2023-04-22T03:18:31.355Z,22.75
2023-04-22T03:19:31.367Z,22.72
2023-04-22T03:20:31.389Z,22.71
2023-04-22T03:21:31.366Z,22.72
2023-04-22T03:22:31.386Z,22.66
2023-04-22T03:23:31.413Z,22.71
2023-04-22T03:24:31.398Z,22.78
2023-04-22T03:25:31.416Z,22.71
2023-04-22T03:26:31.425Z,22.72
2023-04-22T03:27:31.433Z,22.72
2023-04-22T03:28:31.438Z,22.75
2023-04-22T03:29:31.450Z,22.72
2023-04-22T03:30:31.480Z,22.71
2023-04-22T03:31:31.527Z,22.69
2023-04-22T03:32:31.537Z,22.72
2023-04-22T03:33:31.493Z,22.72
2023-04-22T03:34:31.513Z,22.74
2023-04-22T03:35:31.490Z,22.72
2023-04-22T03:36:31.477Z,22.69
2023-04-22T03:37:31.494Z,22.75
2023-04-22T03:38:31.473Z,22.69
2023-04-22T03:39:31.514Z,22.72
2023-04-22T03:40:31.519Z,22.74
2023-04-22T03:41:31.492Z,22.74
2023-04-22T03:42:31.484Z,22.72
2023-04-22T03:43:31.516Z,22.68
2023-04-22T03:44:31.494Z,22.71
2023-04-22T03:45:31.540Z,22.72
2023-04-22T03:46:31.611Z,22.74
2023-04-22T03:47:31.495Z,22.75
2023-04-22T03:48:31.478Z,22.71
2023-04-22T03:49:31.467Z,22.71
2023-04-22T03:50:31.489Z,22.74
2023-04-22T03:51:31.483Z,22.75
2023-04-22T03:52:31.465Z,22.74
2023-04-22T03:53:31.454Z,22.75
2023-04-22T03:54:31.497Z,22.72
2023-04-22T03:55:31.495Z,22.69
2023-04-22T03:56:31.497Z,22.71
2023-04-22T03:57:31.473Z,22.72
2023-04-22T03:58:31.488Z,22.72
2023-04-22T03:59:31.482Z,22.72
2023-04-22T04:00:31.486Z,22.74
2023-04-22T04:01:31.490Z,22.68
2023-04-22T04:02:31.594Z,22.75
2023-04-22T04:03:31.768Z,22.69
2023-04-22T04:04:31.976Z,22.71
2023-04-22T04:05:31.852Z,22.71
2023-04-22T04:06:31.469Z,22.71
2023-04-22T04:07:31.463Z,22.69
2023-04-22T04:08:31.449Z,22.69
2023-04-22T04:09:31.469Z,22.69
2023-04-22T04:10:31.472Z,22.68
2023-04-22T04:11:31.446Z,22.71
2023-04-22T04:12:31.462Z,22.71
2023-04-22T04:13:31.463Z,22.72
2023-04-22T04:14:31.461Z,22.69
2023-04-22T04:15:31.459Z,22.66
2023-04-22T04:16:31.587Z,22.63
2023-04-22T04:17:31.477Z,22.64
2023-04-22T04:18:31.439Z,22.63
2023-04-22T04:19:31.452Z,22.66
2023-04-22T04:20:31.451Z,22.69
2023-04-22T04:21:31.452Z,22.69
2023-04-22T04:22:31.472Z,22.55
2023-04-22T04:23:31.439Z,22.63
2023-04-22T04:24:31.443Z,22.65
2023-04-22T04:25:31.434Z,22.64
2023-04-22T04:26:31.446Z,22.64
2023-04-22T04:27:31.435Z,22.64
2023-04-22T04:28:31.452Z,22.66
2023-04-22T04:29:31.417Z,22.66
2023-04-22T04:30:33.519Z,22.60
2023-04-22T04:31:31.495Z,22.62
2023-04-22T04:32:31.408Z,22.63
2023-04-22T04:33:31.421Z,22.62
2023-04-22T04:34:31.413Z,22.57
2023-04-22T04:35:31.406Z,22.63
2023-04-22T04:36:31.421Z,22.63
2023-04-22T04:37:31.396Z,22.60
2023-04-22T04:38:31.420Z,22.58
2023-04-22T04:39:31.367Z,22.58
2023-04-22T04:40:31.377Z,22.63
2023-04-22T04:41:31.369Z,22.56
2023-04-22T04:42:31.367Z,22.60
2023-04-22T04:43:31.350Z,22.58
2023-04-22T04:44:31.351Z,22.55
2023-04-22T04:45:31.330Z,22.62
2023-04-22T04:46:31.380Z,22.52
2023-04-22T04:47:31.361Z,22.52
2023-04-22T04:48:31.310Z,22.52
2023-04-22T04:49:31.303Z,22.48
2023-04-22T04:50:31.316Z,22.51
2023-04-22T04:51:31.309Z,22.51
2023-04-22T04:52:31.318Z,22.57
2023-04-22T04:53:31.285Z,22.54
2023-04-22T04:54:31.267Z,22.50
2023-04-22T04:55:31.262Z,22.45
2023-04-22T04:56:31.281Z,22.45
2023-04-22T04:57:31.264Z,22.40
2023-04-22T04:58:31.266Z,22.42
2023-04-22T04:59:31.262Z,22.36
2023-04-22T05:00:31.234Z,22.34
2023-04-22T05:01:31.302Z,22.42
2023-04-22T05:02:31.420Z,22.39
2023-04-22T05:03:31.396Z,22.33
2023-04-22T05:04:31.358Z,22.32
2023-04-22T05:05:31.219Z,22.26
2023-04-22T05:06:31.226Z,22.23
2023-04-22T05:07:31.211Z,21.97
2023-04-22T05:08:31.189Z,21.73
2023-04-22T05:09:31.183Z,21.41
2023-04-22T05:10:31.187Z,21.10
2023-04-22T05:11:31.266Z,20.71
2023-04-22T05:12:31.180Z,20.38
2023-04-22T05:13:31.165Z,20.08
2023-04-22T05:14:31.168Z,19.84
2023-04-22T05:15:31.168Z,19.59
2023-04-22T05:16:31.237Z,19.35
2023-04-22T05:17:31.179Z,19.11
2023-04-22T05:18:31.148Z,18.93
2023-04-22T05:19:31.134Z,18.67
2023-04-22T05:20:32.104Z,18.56
2023-04-22T05:21:31.130Z,18.41
2023-04-22T05:22:31.151Z,18.33
2023-04-22T05:23:31.096Z,18.22
2023-04-22T05:24:31.102Z,18.02
2023-04-22T05:25:31.098Z,17.84
2023-04-22T05:26:31.131Z,17.81
2023-04-22T05:27:31.070Z,17.72
2023-04-22T05:28:31.082Z,17.65
2023-04-22T05:29:31.047Z,17.40
2023-04-22T05:30:31.050Z,17.45
2023-04-22T05:31:31.078Z,17.24
2023-04-22T05:32:31.121Z,17.17
2023-04-22T05:33:31.162Z,17.04
2023-04-22T05:34:31.265Z,17.04
2023-04-22T05:35:31.270Z,17.04
2023-04-22T05:36:31.650Z,17.03
2023-04-22T05:37:31.404Z,17.07
2023-04-22T05:38:31.444Z,17.24
2023-04-22T05:39:31.541Z,17.26
2023-04-22T05:40:31.535Z,17.46
2023-04-22T05:41:31.602Z,17.54
2023-04-22T05:42:31.606Z,17.57
2023-04-22T05:43:31.629Z,17.60
2023-04-22T05:44:31.688Z,17.58
2023-04-22T05:45:31.734Z,17.58
2023-04-22T05:46:31.826Z,17.49
2023-04-22T05:47:31.803Z,17.46
2023-04-22T05:48:31.790Z,17.47
2023-04-22T05:49:31.830Z,17.39
2023-04-22T05:50:31.878Z,17.33
2023-04-22T05:51:31.895Z,17.50
2023-04-22T05:52:31.939Z,17.79
2023-04-22T05:53:31.979Z,17.93
2023-04-22T05:54:32.036Z,18.08
2023-04-22T05:55:32.145Z,18.29
2023-04-22T05:56:32.129Z,18.41
2023-04-22T05:57:32.127Z,18.58
2023-04-22T05:58:32.160Z,18.71
2023-04-22T05:59:32.168Z,18.81
2023-04-22T06:00:32.210Z,19.06
2023-04-22T06:01:32.237Z,19.13
2023-04-22T06:02:32.350Z,19.16
2023-04-22T06:03:32.501Z,19.24
2023-04-22T06:04:34.497Z,19.15
2023-04-22T06:05:32.466Z,19.12
2023-04-22T06:06:32.384Z,18.99
2023-04-22T06:07:32.379Z,18.85
2023-04-22T06:08:32.350Z,18.69
2023-04-22T06:09:32.330Z,18.61
2023-04-22T06:10:32.323Z,18.69
2023-04-22T06:11:32.334Z,18.77
2023-04-22T06:12:32.304Z,18.90
2023-04-22T06:13:32.302Z,19.05
2023-04-22T06:14:32.292Z,19.17
2023-04-22T06:15:32.318Z,19.24
2023-04-22T06:16:32.301Z,19.32
2023-04-22T06:17:32.310Z,19.44
2023-04-22T06:18:32.269Z,19.53
2023-04-22T06:19:32.268Z,19.57
2023-04-22T06:20:32.277Z,19.67
2023-04-22T06:21:32.275Z,19.75
2023-04-22T06:22:32.266Z,19.77
2023-04-22T06:23:32.271Z,19.83
2023-04-22T06:24:32.250Z,19.86
2023-04-22T06:25:32.258Z,19.92
2023-04-22T06:26:32.230Z,19.96
2023-04-22T06:27:32.216Z,20.00
2023-04-22T06:28:32.224Z,20.00
2023-04-22T06:29:32.202Z,20.07
2023-04-22T06:30:32.212Z,20.06
2023-04-22T06:31:32.263Z,20.14
2023-04-22T06:32:32.239Z,20.20
2023-04-22T06:33:32.213Z,20.18
2023-04-22T06:34:32.280Z,20.28
2023-04-22T06:35:32.317Z,20.32
2023-04-22T06:36:32.393Z,20.35
2023-04-22T06:37:32.429Z,20.46
2023-04-22T06:38:32.518Z,20.49
2023-04-22T06:39:32.570Z,20.50
2023-04-22T06:40:32.626Z,20.54
2023-04-22T06:41:32.674Z,20.54
2023-04-22T06:42:32.728Z,20.59
2023-04-22T06:43:32.787Z,20.59
2023-04-22T06:44:32.868Z,20.68
2023-04-22T06:45:32.912Z,20.60
2023-04-22T06:46:33.022Z,20.63
2023-04-22T06:47:33.089Z,20.60
2023-04-22T06:48:33.087Z,20.60
2023-04-22T06:49:33.143Z,20.59
2023-04-22T06:50:33.192Z,20.59
2023-04-22T06:51:33.678Z,20.54
2023-04-22T06:52:33.289Z,20.54
2023-04-22T06:53:33.324Z,20.51
2023-04-22T06:54:33.348Z,20.56
2023-04-22T06:55:33.429Z,20.59
2023-04-22T06:56:33.458Z,20.57
2023-04-22T06:57:33.527Z,20.56
2023-04-22T06:58:33.545Z,20.65
2023-04-22T06:59:33.589Z,20.60
2023-04-22T07:00:33.618Z,20.66
2023-04-22T07:01:33.705Z,20.60
2023-04-22T07:02:33.800Z,20.66
2023-04-22T07:03:33.989Z,20.66
2023-04-22T07:04:33.843Z,20.70
2023-04-22T07:05:33.852Z,20.70
2023-04-22T07:06:33.888Z,20.73
2023-04-22T07:07:33.940Z,20.71
2023-04-22T07:08:33.996Z,20.77
2023-04-22T07:09:34.034Z,20.71
2023-04-22T07:10:34.074Z,20.76
2023-04-22T07:11:34.123Z,20.79
2023-04-22T07:12:34.177Z,20.81
2023-04-22T07:13:34.260Z,20.81
2023-04-22T07:14:34.264Z,20.88
2023-04-22T07:15:34.318Z,20.93
2023-04-22T07:16:34.410Z,20.87
2023-04-22T07:17:34.448Z,20.93
2023-04-22T07:18:34.517Z,20.92
2023-04-22T07:19:35.311Z,20.91
2023-04-22T07:20:34.592Z,20.97
2023-04-22T07:21:34.636Z,20.94
2023-04-22T07:22:34.701Z,20.96
2023-04-22T07:23:34.751Z,21.00
2023-04-22T07:24:34.784Z,21.04
2023-04-22T07:25:34.835Z,21.07
2023-04-22T07:26:34.910Z,21.07
2023-04-22T07:27:35.300Z,21.07
2023-04-22T07:28:35.000Z,21.13
2023-04-22T07:29:35.048Z,21.05
2023-04-22T07:30:35.108Z,21.10
2023-04-22T07:31:35.192Z,21.14
2023-04-22T07:32:35.252Z,21.13
2023-04-22T07:33:35.268Z,21.13
2023-04-22T07:34:35.334Z,21.13
2023-04-22T07:35:35.388Z,21.10
2023-04-22T07:36:35.447Z,21.10
2023-04-22T07:37:35.528Z,21.05
2023-04-22T07:38:35.568Z,21.10
2023-04-22T07:39:35.648Z,21.11
2023-04-22T07:40:35.696Z,21.08
2023-04-22T07:41:35.734Z,21.07
2023-04-22T07:42:35.802Z,21.08
2023-04-22T07:43:35.840Z,21.04
2023-04-22T07:44:37.019Z,21.07
2023-04-22T07:45:36.025Z,21.01
2023-04-22T07:46:35.900Z,21.07
2023-04-22T07:47:35.890Z,21.09
2023-04-22T07:48:35.876Z,21.05
2023-04-22T07:49:35.855Z,21.07
2023-04-22T07:50:38.121Z,21.10
2023-04-22T07:51:35.866Z,21.10
2023-04-22T07:52:35.846Z,21.09
2023-04-22T07:53:35.841Z,21.04
2023-04-22T07:54:35.821Z,21.05
2023-04-22T07:55:35.834Z,21.04
2023-04-22T07:56:35.821Z,21.08
2023-04-22T07:57:35.792Z,21.04
2023-04-22T07:58:35.800Z,21.07
2023-04-22T07:59:35.794Z,21.05
2023-04-22T08:00:35.811Z,21.10
2023-04-22T08:01:35.791Z,21.02
2023-04-22T08:02:35.901Z,21.02
2023-04-22T08:03:36.027Z,21.01
2023-04-22T08:04:35.837Z,21.05
2023-04-22T08:05:35.746Z,21.04
2023-04-22T08:06:35.766Z,21.04
2023-04-22T08:07:35.734Z,21.03
2023-04-22T08:08:35.749Z,21.11
2023-04-22T08:09:35.735Z,21.05
2023-04-22T08:10:35.741Z,21.08
2023-04-22T08:11:35.714Z,21.05
2023-04-22T08:12:35.724Z,21.06
2023-04-22T08:13:35.700Z,21.08
2023-04-22T08:14:35.695Z,21.09
2023-04-22T08:15:35.741Z,21.13
2023-04-22T08:16:35.698Z,21.11
2023-04-22T08:17:35.795Z,21.11
2023-04-22T08:18:35.667Z,21.14
2023-04-22T08:19:35.661Z,21.17
2023-04-22T08:20:35.666Z,21.12
2023-04-22T08:21:35.654Z,21.04
2023-04-22T08:22:35.660Z,21.12
2023-04-22T08:23:35.644Z,21.17
2023-04-22T08:24:35.643Z,21.14
2023-04-22T08:25:35.666Z,21.18
2023-04-22T08:26:35.633Z,21.12
2023-04-22T08:27:35.628Z,21.17
2023-04-22T08:28:35.610Z,21.16
2023-04-22T08:29:35.613Z,21.17
2023-04-22T08:30:35.633Z,21.20
2023-04-22T08:31:35.699Z,21.21
2023-04-22T08:32:35.717Z,21.16
2023-04-22T08:33:35.739Z,21.21
2023-04-22T08:34:36.642Z,21.18
2023-04-22T08:35:35.905Z,21.24
2023-04-22T08:36:35.914Z,21.22
2023-04-22T08:37:35.940Z,21.27
2023-04-22T08:38:36.014Z,21.22
2023-04-22T08:39:36.050Z,21.27
2023-04-22T08:40:36.114Z,21.24
2023-04-22T08:41:36.163Z,21.22
2023-04-22T08:42:36.226Z,21.22
2023-04-22T08:43:36.276Z,21.18
2023-04-22T08:44:36.276Z,21.24
2023-04-22T08:45:36.325Z,21.25
2023-04-22T08:46:36.350Z,21.32
2023-04-22T08:47:36.384Z,21.33
2023-04-22T08:48:36.382Z,21.25
2023-04-22T08:49:36.502Z,21.25
2023-04-22T08:50:36.456Z,21.31
2023-04-22T08:51:36.467Z,21.28
2023-04-22T08:52:36.484Z,21.31
2023-04-22T08:53:36.515Z,21.22
2023-04-22T08:54:36.518Z,21.31
2023-04-22T08:55:36.588Z,21.26
2023-04-22T08:56:36.545Z,21.28
2023-04-22T08:57:36.572Z,21.29
2023-04-22T08:58:36.583Z,21.26
2023-04-22T08:59:36.591Z,21.23
2023-04-22T09:00:36.624Z,21.29
2023-04-22T09:01:36.638Z,21.32
2023-04-22T09:02:36.624Z,21.32
2023-04-22T09:03:36.672Z,21.26
2023-04-22T09:04:36.752Z,21.29
2023-04-22T09:05:36.588Z,21.27
2023-04-22T09:06:36.598Z,21.32
2023-04-22T09:07:36.604Z,21.32
2023-04-22T09:08:36.601Z,21.30
2023-04-22T09:09:36.641Z,21.29
2023-04-22T09:10:36.587Z,21.32
2023-04-22T09:11:36.597Z,21.29
2023-04-22T09:12:36.586Z,21.32
2023-04-22T09:13:36.589Z,21.38
2023-04-22T09:14:36.607Z,21.33
2023-04-22T09:15:36.614Z,21.30
2023-04-22T09:16:36.634Z,21.30
2023-04-22T09:17:36.617Z,21.37
2023-04-22T09:18:36.617Z,21.37
2023-04-22T09:19:36.638Z,21.36
2023-04-22T09:20:36.627Z,21.30
2023-04-22T09:21:36.627Z,21.33
2023-04-22T09:22:36.648Z,21.33
2023-04-22T09:23:36.657Z,21.33
2023-04-22T09:24:36.645Z,21.36
2023-04-22T09:25:36.677Z,21.30
2023-04-22T09:26:36.686Z,21.35
2023-04-22T09:27:36.690Z,21.35
2023-04-22T09:28:36.698Z,21.33
2023-04-22T09:29:36.895Z,21.33
2023-04-22T09:30:36.710Z,21.36
2023-04-22T09:31:36.747Z,21.34
2023-04-22T09:32:36.707Z,21.34
2023-04-22T09:33:36.725Z,21.31
2023-04-22T09:34:36.725Z,21.33
2023-04-22T09:35:36.730Z,21.33
2023-04-22T09:36:36.783Z,21.28
2023-04-22T09:37:48.861Z,21.31
2023-04-22T09:38:37.760Z,21.37
2023-04-22T09:39:37.049Z,21.34
2023-04-22T09:40:36.764Z,21.31
2023-04-22T09:41:36.754Z,21.37
2023-04-22T09:42:36.741Z,21.31
2023-04-22T09:43:36.734Z,21.28
2023-04-22T09:44:36.720Z,21.26
2023-04-22T09:45:36.757Z,21.42
2023-04-22T09:46:36.756Z,21.34
2023-04-22T09:47:36.818Z,21.39
2023-04-22T09:48:36.697Z,21.35
2023-04-22T09:49:36.798Z,21.30
2023-04-22T09:50:36.668Z,21.34
2023-04-22T09:51:36.683Z,21.35
2023-04-22T09:52:36.675Z,21.35
2023-04-22T09:53:36.671Z,21.40
2023-04-22T09:54:36.660Z,21.31
2023-04-22T09:55:36.638Z,21.34
2023-04-22T09:56:36.632Z,21.30
2023-04-22T09:57:36.635Z,21.41
2023-04-22T09:58:36.614Z,21.34
2023-04-22T09:59:36.624Z,21.35
2023-04-22T10:00:36.620Z,21.40
2023-04-22T10:01:36.627Z,21.41
2023-04-22T10:02:36.654Z,21.36
2023-04-22T10:03:36.655Z,21.38
2023-04-22T10:04:36.723Z,21.40
2023-04-22T10:05:36.699Z,21.32
2023-04-22T10:06:36.713Z,21.33
2023-04-22T10:07:36.817Z,21.34
2023-04-22T10:08:36.763Z,21.32
2023-04-22T10:09:36.936Z,21.29
2023-04-22T10:10:36.815Z,21.30
2023-04-22T10:11:36.849Z,21.35
2023-04-22T10:12:36.880Z,21.40
2023-04-22T10:13:36.904Z,21.32
2023-04-22T10:14:36.945Z,21.29
2023-04-22T10:15:36.958Z,21.36
2023-04-22T10:16:37.021Z,21.33
2023-04-22T10:17:37.054Z,21.33
2023-04-22T10:18:37.054Z,21.35
2023-04-22T10:19:37.073Z,21.35
2023-04-22T10:20:37.101Z,21.35
2023-04-22T10:21:37.123Z,21.29
2023-04-22T10:22:37.153Z,21.30
2023-04-22T10:23:37.179Z,21.35
2023-04-22T10:24:37.229Z,21.36
2023-04-22T10:25:37.239Z,21.36
2023-04-22T10:26:37.290Z,21.33
2023-04-22T10:27:37.282Z,21.35
2023-04-22T10:28:37.332Z,21.38
2023-04-22T10:29:37.562Z,21.28
2023-04-22T10:30:37.388Z,21.39
2023-04-22T10:31:37.412Z,21.37
2023-04-22T10:32:37.436Z,21.36
2023-04-22T10:33:37.462Z,21.28
2023-04-22T10:34:37.499Z,21.36
2023-04-22T10:35:37.510Z,21.35
2023-04-22T10:36:37.555Z,21.37
2023-04-22T10:37:37.569Z,21.33
2023-04-22T10:38:37.642Z,21.35
2023-04-22T10:39:37.653Z,21.31
2023-04-22T10:40:37.681Z,21.36
2023-04-22T10:41:37.723Z,21.34
2023-04-22T10:42:37.783Z,21.36
2023-04-22T10:43:37.784Z,21.31
2023-04-22T10:44:37.804Z,21.36
2023-04-22T10:45:37.855Z,21.33
2023-04-22T10:46:38.163Z,21.34
2023-04-22T10:47:37.938Z,21.29
2023-04-22T10:48:37.943Z,21.28
2023-04-22T10:49:38.298Z,21.30
2023-04-22T10:50:38.021Z,21.34
2023-04-22T10:51:38.060Z,21.31
2023-04-22T10:52:38.099Z,21.37
2023-04-22T10:53:38.125Z,21.37
2023-04-22T10:54:38.160Z,21.39
2023-04-22T10:55:38.196Z,21.37
2023-04-22T10:56:42.968Z,21.31
2023-04-22T10:57:39.228Z,21.35
2023-04-22T10:58:38.230Z,21.31
2023-04-22T10:59:38.351Z,21.40
2023-04-22T11:00:51.639Z,21.29
2023-04-22T11:01:39.252Z,21.32
2023-04-22T11:02:38.371Z,21.32
2023-04-22T11:03:38.257Z,21.31
2023-04-22T11:04:38.182Z,21.37
2023-04-22T11:05:38.188Z,21.26
2023-04-22T11:06:38.173Z,21.37
2023-04-22T11:07:38.155Z,21.37
2023-04-22T11:08:38.160Z,21.38
2023-04-22T11:09:38.305Z,21.37
2023-04-22T11:10:38.142Z,21.37
2023-04-22T11:11:38.137Z,21.35
2023-04-22T11:12:38.111Z,21.34
2023-04-22T11:13:38.130Z,21.32
2023-04-22T11:14:38.114Z,21.35
2023-04-22T11:15:38.128Z,21.34
2023-04-22T11:16:38.180Z,21.30
2023-04-22T11:17:38.251Z,21.32
2023-04-22T11:18:38.227Z,21.38
2023-04-22T11:19:38.468Z,21.30
2023-04-22T11:20:38.317Z,21.34
2023-04-22T11:21:38.348Z,21.34
2023-04-22T11:22:38.408Z,21.45
2023-04-22T11:23:38.427Z,21.37
2023-04-22T11:24:38.479Z,21.38
2023-04-22T11:25:38.548Z,21.38
2023-04-22T11:26:38.588Z,21.34
2023-04-22T11:27:38.589Z,21.34
2023-04-22T11:28:38.624Z,21.36
2023-04-22T11:29:38.841Z,21.40
2023-04-22T11:30:38.711Z,21.30
2023-04-22T11:31:38.802Z,21.27
2023-04-22T11:32:38.833Z,21.32
2023-04-22T11:33:38.834Z,21.27
2023-04-22T11:34:38.890Z,21.38
2023-04-22T11:35:38.933Z,21.36
2023-04-22T11:36:38.973Z,21.37
2023-04-22T11:37:39.016Z,21.28
2023-04-22T11:38:39.068Z,21.27
2023-04-22T11:39:50.233Z,21.29
2023-04-22T11:40:41.458Z,21.29
2023-04-22T11:41:39.135Z,21.29
2023-04-22T11:42:39.102Z,21.27
2023-04-22T11:43:39.102Z,21.35
2023-04-22T11:44:39.076Z,21.27
2023-04-22T11:45:39.111Z,21.32
2023-04-22T11:46:39.086Z,21.33
2023-04-22T11:47:39.125Z,21.29
2023-04-22T11:48:39.096Z,21.33
2023-04-22T11:49:39.374Z,21.27
2023-04-22T11:50:39.061Z,21.38
2023-04-22T11:51:39.049Z,21.24
2023-04-22T11:52:39.044Z,21.32
2023-04-22T11:53:39.034Z,21.27
2023-04-22T11:54:39.043Z,21.29
2023-04-22T11:55:39.020Z,21.32
2023-04-22T11:56:39.041Z,21.32
2023-04-22T11:57:39.011Z,21.24
2023-04-22T11:58:39.069Z,21.30
2023-04-22T11:59:39.186Z,21.36
2023-04-22T12:00:39.149Z,21.30
2023-04-22T12:01:39.190Z,21.30
2023-04-22T12:02:39.370Z,21.32
2023-04-22T12:03:39.381Z,21.27
2023-04-22T12:04:39.363Z,21.33
2023-04-22T12:05:39.523Z,21.39
2023-04-22T12:06:39.425Z,21.33
2023-04-22T12:07:39.468Z,21.32
2023-04-22T12:08:39.554Z,21.33
2023-04-22T12:09:39.949Z,21.25
2023-04-22T12:10:39.636Z,21.30
2023-04-22T12:11:39.679Z,21.28
2023-04-22T12:12:39.728Z,21.24
2023-04-22T12:13:39.796Z,21.33
2023-04-22T12:14:39.836Z,21.30
2023-04-22T12:15:39.879Z,21.36
2023-04-22T12:16:39.969Z,21.27
2023-04-22T12:17:40.010Z,21.27
2023-04-22T12:18:40.038Z,21.27
2023-04-22T12:19:40.330Z,21.24
2023-04-22T12:20:40.149Z,21.28
2023-04-22T12:21:40.186Z,21.25
2023-04-22T12:22:40.249Z,21.30
2023-04-22T12:23:40.295Z,21.27
2023-04-22T12:24:40.331Z,21.21
2023-04-22T12:25:40.394Z,21.22
2023-04-22T12:26:40.439Z,21.24
2023-04-22T12:27:40.470Z,21.25
2023-04-22T12:28:40.536Z,21.21
2023-04-22T12:29:40.740Z,21.17
2023-04-22T12:30:40.611Z,21.19
2023-04-22T12:31:40.752Z,21.13
2023-04-22T12:32:40.732Z,21.24
2023-04-22T12:33:40.811Z,21.17
2023-04-22T12:34:40.849Z,21.11
2023-04-22T12:35:40.935Z,21.08
2023-04-22T12:36:40.928Z,21.11
2023-04-22T12:37:40.992Z,21.13
2023-04-22T12:38:41.049Z,21.06
2023-04-22T12:39:41.319Z,21.13
2023-04-22T12:40:41.139Z,21.02
2023-04-22T12:41:41.180Z,21.08
2023-04-22T12:42:41.248Z,20.98
2023-04-22T12:43:41.302Z,21.03
2023-04-22T12:44:41.350Z,21.03
2023-04-22T12:45:41.404Z,21.03
2023-04-22T12:46:41.475Z,20.89
2023-04-22T12:47:41.528Z,20.94
2023-04-22T12:48:41.539Z,20.94
2023-04-22T12:49:42.256Z,20.95
2023-04-22T12:50:41.641Z,20.95
2023-04-22T12:51:41.694Z,20.94
2023-04-22T12:52:41.778Z,20.89